Time;durP1;ratioP1;P1;durP2;ratioP2;P2;SDS_P1;SDS_P2;PMS_P1;PMS_P2;Temp;Humidity;BMP_temperature;BMP_pressure;BME280_temperature;BME280_humidity;BME280_pressure;Samples;Min_cycle;Max_cycle;Signal;HPM_P1;HPM_P2
2021/12/20 00:01:42;;;;;;;13.00;7.97;;;8.30;99.90;;;;;;5094303;28;20204;-63
2021/12/20 00:04:08;;;;;;;11.77;7.07;;;8.20;99.90;;;;;;5076218;28;20638;-62
2021/12/20 00:06:33;;;;;;;13.10;5.90;;;8.20;99.90;;;;;;5060793;28;20287;-63
2021/12/20 00:08:59;;;;;;;13.77;7.27;;;8.40;99.90;;;;;;5062763;28;20204;-62
2021/12/20 00:11:24;;;;;;;11.13;6.10;;;8.40;99.90;;;;;;5082076;28;20189;-63
2021/12/20 00:13:50;;;;;;;17.93;7.30;;;8.50;99.90;;;;;;5059172;28;20181;-62
2021/12/20 00:16:16;;;;;;;12.23;5.37;;;8.40;99.90;;;;;;5075602;28;20197;-63
2021/12/20 00:18:43;;;;;;;14.50;6.10;;;8.40;99.90;;;;;;5094293;28;20172;-63
2021/12/20 00:21:10;;;;;;;11.37;5.80;;;8.60;99.90;;;;;;5075477;28;20185;-63
2021/12/20 00:23:35;;;;;;;9.53;5.80;;;8.70;99.90;;;;;;5093542;28;20184;-63
2021/12/20 00:26:01;;;;;;;9.67;5.60;;;8.50;99.90;;;;;;5075071;28;20224;-63
2021/12/20 00:28:27;;;;;;;12.77;4.83;;;8.50;99.90;;;;;;5070372;28;20216;-63
2021/12/20 00:30:52;;;;;;;12.17;5.40;;;8.70;99.90;;;;;;5076441;28;20267;-63
2021/12/20 00:33:18;;;;;;;10.47;6.10;;;8.70;99.90;;;;;;5093614;28;20188;-63
2021/12/20 00:35:44;;;;;;;8.97;5.50;;;8.50;99.90;;;;;;5074050;28;20192;-63
2021/12/20 00:40:55;;;;;;;11.33;6.67;;;8.60;99.90;;;;;;5086566;28;20710;-63
2021/12/20 00:43:21;;;;;;;12.10;6.03;;;8.60;99.90;;;;;;5058794;28;20188;-63
2021/12/20 00:45:47;;;;;;;11.93;4.70;;;8.60;99.90;;;;;;5093286;28;20349;-63
2021/12/20 00:48:12;;;;;;;9.23;5.77;;;8.70;99.90;;;;;;5091382;28;20838;-62
2021/12/20 00:50:40;;;;;;;9.70;5.37;;;8.80;99.90;;;;;;5056245;28;20188;-63
2021/12/20 00:53:06;;;;;;;18.53;5.60;;;8.70;99.90;;;;;;5043330;28;20233;-63
2021/12/20 00:55:32;;;;;;;8.00;4.83;;;8.70;99.90;;;;;;5084704;28;20185;-63
2021/12/20 00:57:59;;;;;;;8.63;6.13;;;8.80;99.90;;;;;;5082754;28;20652;-63
2021/12/20 01:00:29;;;;;;;9.40;5.00;;;8.90;99.90;;;;;;5067434;28;20198;-63
2021/12/20 01:02:56;;;;;;;7.37;4.93;;;8.80;99.90;;;;;;5071344;28;20181;-62
2021/12/20 01:05:23;;;;;;;9.27;6.57;;;8.80;99.90;;;;;;5077711;28;20187;-63
2021/12/20 01:07:48;;;;;;;12.70;5.97;;;8.90;99.90;;;;;;5092942;28;20184;-63
2021/12/20 01:10:16;;;;;;;13.37;6.73;;;8.90;99.90;;;;;;5074992;28;20201;-63
2021/12/20 01:12:46;;;;;;;14.87;7.03;;;8.90;99.90;;;;;;5066497;28;20594;-63
2021/12/20 01:15:19;;;;;;;11.73;5.73;;;8.90;99.90;;;;;;5093058;28;20546;-62
2021/12/20 01:17:44;;;;;;;7.43;5.23;;;8.70;99.90;;;;;;5093028;28;20177;-63
2021/12/20 01:20:11;;;;;;;12.07;6.93;;;8.70;99.90;;;;;;5093309;28;20297;-62
2021/12/20 01:22:37;;;;;;;11.83;7.33;;;8.80;99.90;;;;;;5092403;28;20184;-63
2021/12/20 01:25:04;;;;;;;12.73;7.47;;;8.80;99.90;;;;;;5072909;28;20309;-63
2021/12/20 01:27:29;;;;;;;13.17;7.57;;;9.00;99.90;;;;;;5082432;28;20200;-63
2021/12/20 01:29:55;;;;;;;15.07;7.03;;;8.80;99.90;;;;;;5092292;28;20188;-63
2021/12/20 01:32:22;;;;;;;12.97;7.73;;;8.60;99.90;;;;;;5075278;28;20177;-62
2021/12/20 01:34:48;;;;;;;13.70;7.07;;;8.40;99.90;;;;;;5073555;28;20187;-63
2021/12/20 01:37:15;;;;;;;13.90;7.27;;;8.20;99.90;;;;;;5076106;28;20181;-62
2021/12/20 01:39:42;;;;;;;14.13;7.70;;;8.20;99.90;;;;;;5093273;28;20215;-62
2021/12/20 01:42:08;;;;;;;15.33;7.37;;;8.10;99.90;;;;;;5057681;28;20184;-62
2021/12/20 01:44:36;;;;;;;13.83;6.93;;;8.20;99.90;;;;;;5058178;28;20189;-62
2021/12/20 01:47:03;;;;;;;11.20;7.33;;;8.20;99.90;;;;;;5068876;28;20263;-63
2021/12/20 01:49:32;;;;;;;10.77;6.93;;;8.10;99.90;;;;;;5077995;28;20188;-63
2021/12/20 01:54:23;;;;;;;13.63;7.47;;;8.30;99.90;;;;;;5062567;28;20193;-63
2021/12/20 01:56:49;;;;;;;13.47;8.70;;;8.50;99.90;;;;;;5096466;28;20172;-63
2021/12/20 01:59:15;;;;;;;14.47;8.17;;;8.50;99.90;;;;;;5072601;28;20185;-63
2021/12/20 02:01:42;;;;;;;12.07;7.17;;;8.30;99.90;;;;;;5090031;28;20184;-62
2021/12/20 02:04:09;;;;;;;19.53;7.50;;;8.10;99.90;;;;;;5078443;28;20218;-63
2021/12/20 02:06:38;;;;;;;14.53;7.80;;;8.00;99.90;;;;;;5096470;28;20208;-63
2021/12/20 02:09:06;;;;;;;18.57;7.10;;;8.00;99.90;;;;;;5078109;28;20197;-62
2021/12/20 02:11:32;;;;;;;13.30;7.70;;;7.90;99.90;;;;;;5078263;28;20191;-63
2021/12/20 02:13:58;;;;;;;14.80;8.37;;;8.00;99.90;;;;;;5078463;28;20188;-63
2021/12/20 02:16:24;;;;;;;14.57;7.37;;;8.00;99.90;;;;;;5061636;28;20535;-63
2021/12/20 02:18:51;;;;;;;14.40;8.13;;;8.20;99.90;;;;;;5096258;28;20271;-63
2021/12/20 02:21:17;;;;;;;11.90;6.93;;;8.40;99.90;;;;;;5096348;28;20209;-63
2021/12/20 02:23:43;;;;;;;21.20;8.70;;;8.60;99.90;;;;;;5078736;28;20215;-63
2021/12/20 02:26:12;;;;;;;12.10;8.00;;;8.70;99.90;;;;;;5060844;28;20642;-63
2021/12/20 02:28:43;;;;;;;17.70;7.63;;;8.60;99.90;;;;;;5077842;28;20276;-63
2021/12/20 02:39:17;;;;;;;12.60;8.27;;;8.30;99.90;;;;;;5096064;28;20207;-63
2021/12/20 02:41:44;;;;;;;14.27;8.17;;;8.30;99.90;;;;;;5056272;28;20185;-63
2021/12/20 02:44:18;;;;;;;11.50;6.63;;;8.30;99.90;;;;;;5088221;28;20188;-63
2021/12/20 02:47:08;;;;;;;13.93;7.60;;;8.30;99.90;;;;;;5068822;28;20223;-63
2021/12/20 02:49:32;;;;;;;21.87;7.63;;;8.40;99.90;;;;;;5095443;28;20197;-63
2021/12/20 02:52:08;;;;;;;13.77;7.07;;;8.20;99.90;;;;;;5076799;28;20196;-63
2021/12/20 02:54:35;;;;;;;13.67;7.07;;;8.20;99.90;;;;;;5079052;28;20690;-63
2021/12/20 02:57:01;;;;;;;9.93;6.13;;;8.20;99.90;;;;;;5092311;28;20216;-63
2021/12/20 02:59:27;;;;;;;9.87;7.20;;;8.20;99.90;;;;;;5074886;28;20211;-63
2021/12/20 03:01:59;;;;;;;12.33;6.50;;;8.30;99.90;;;;;;5095123;28;20607;-63
2021/12/20 03:04:25;;;;;;;13.57;7.50;;;8.00;99.90;;;;;;5074962;28;20195;-63
2021/12/20 03:07:02;;;;;;;16.50;8.83;;;7.90;99.90;;;;;;5075781;28;20209;-63
2021/12/20 03:09:33;;;;;;;15.40;6.23;;;7.80;99.90;;;;;;5058774;28;20205;-63
2021/12/20 03:12:01;;;;;;;9.93;6.87;;;8.00;99.90;;;;;;5081216;28;20187;-63
2021/12/20 03:14:38;;;;;;;11.87;6.77;;;8.00;99.90;;;;;;5094573;28;20544;-63
2021/12/20 03:17:05;;;;;;;16.17;7.33;;;8.00;99.90;;;;;;5095259;28;20224;-63
2021/12/20 03:19:31;;;;;;;14.97;8.63;;;8.00;99.90;;;;;;5077154;28;20180;-63
2021/12/20 03:21:57;;;;;;;10.33;6.73;;;7.90;99.90;;;;;;5077166;28;20191;-63
2021/12/20 03:24:23;;;;;;;13.73;7.03;;;7.90;99.90;;;;;;5061569;28;20200;-63
2021/12/20 03:26:49;;;;;;;13.10;6.90;;;7.90;99.90;;;;;;5057894;28;20371;-63
2021/12/20 03:29:16;;;;;;;12.30;6.93;;;7.80;99.90;;;;;;5058342;28;20670;-63
2021/12/20 03:31:41;;;;;;;13.67;7.43;;;7.90;99.90;;;;;;5084722;28;20182;-63
2021/12/20 03:34:08;;;;;;;14.27;6.40;;;8.00;99.90;;;;;;5068907;28;20189;-63
2021/12/20 03:36:34;;;;;;;10.37;6.57;;;8.00;99.90;;;;;;5070328;28;20190;-63
2021/12/20 03:39:01;;;;;;;10.47;6.97;;;8.00;99.90;;;;;;5084536;28;20189;-63
2021/12/20 03:41:27;;;;;;;15.13;7.27;;;7.90;99.90;;;;;;5095114;28;20637;-63
2021/12/20 03:43:52;;;;;;;11.73;7.47;;;7.90;99.90;;;;;;5079037;28;20266;-63
2021/12/20 03:46:18;;;;;;;11.43;8.37;;;7.80;99.90;;;;;;5073315;28;20228;-63
2021/12/20 03:48:44;;;;;;;17.83;8.43;;;7.70;99.90;;;;;;5081856;28;20194;-62
2021/12/20 03:51:10;;;;;;;19.07;8.13;;;7.70;99.90;;;;;;5085580;28;20188;-62
2021/12/20 03:53:36;;;;;;;15.40;8.33;;;7.90;99.90;;;;;;5085574;28;20231;-63
2021/12/20 03:56:04;;;;;;;18.30;8.27;;;7.90;99.90;;;;;;5094519;28;20207;-63
2021/12/20 03:58:31;;;;;;;14.20;8.67;;;7.70;99.90;;;;;;5076321;28;20191;-63
2021/12/20 04:00:58;;;;;;;15.20;7.50;;;7.80;99.90;;;;;;5094254;28;20238;-63
2021/12/20 04:03:25;;;;;;;11.87;6.47;;;7.70;99.90;;;;;;5076333;28;20645;-62
2021/12/20 04:05:51;;;;;;;10.20;6.63;;;7.80;99.90;;;;;;5094252;28;20303;-63
2021/12/20 04:08:17;;;;;;;10.03;5.60;;;8.00;99.90;;;;;;5067612;28;20185;-63
2021/12/20 04:10:42;;;;;;;11.97;6.70;;;8.10;99.90;;;;;;5060504;28;20573;-62
2021/12/20 04:13:09;;;;;;;10.47;4.97;;;8.00;99.90;;;;;;5076151;28;20633;-63
2021/12/20 04:15:36;;;;;;;9.97;4.53;;;7.90;99.90;;;;;;5059511;28;20189;-63
2021/12/20 04:18:02;;;;;;;10.13;4.90;;;8.00;99.90;;;;;;5094002;28;20216;-63
2021/12/20 04:20:27;;;;;;;13.10;5.20;;;7.90;99.90;;;;;;5072588;28;20234;-63
2021/12/20 04:22:53;;;;;;;18.90;6.53;;;7.80;99.90;;;;;;5070347;28;20270;-63
2021/12/20 04:25:19;;;;;;;11.17;5.00;;;7.70;99.90;;;;;;5056871;28;20734;-63
2021/12/20 04:27:44;;;;;;;8.27;5.43;;;7.80;99.90;;;;;;5042013;28;20186;-63
2021/12/20 04:30:11;;;;;;;7.83;5.83;;;7.80;99.90;;;;;;5093864;28;20661;-62
2021/12/20 04:32:42;;;;;;;6.33;4.80;;;7.80;99.90;;;;;;5086542;28;20272;-63
2021/12/20 04:35:10;;;;;;;10.23;5.90;;;7.70;99.90;;;;;;5082633;28;20654;-63
2021/12/20 04:37:36;;;;;;;10.87;4.90;;;8.00;99.90;;;;;;5075467;28;20527;-63
2021/12/20 04:40:07;;;;;;;7.57;4.97;;;8.10;99.90;;;;;;5058750;28;20208;-63
2021/12/20 04:42:34;;;;;;;9.70;4.97;;;8.00;99.90;;;;;;5075434;28;20185;-63
2021/12/20 04:45:00;;;;;;;12.13;4.93;;;7.90;99.90;;;;;;5093158;28;20200;-64
2021/12/20 04:47:26;;;;;;;6.73;4.63;;;7.90;99.90;;;;;;5093417;28;20208;-63
2021/12/20 04:49:51;;;;;;;6.87;4.60;;;8.00;99.90;;;;;;5075162;28;20188;-63
2021/12/20 04:52:17;;;;;;;6.60;5.00;;;8.00;99.90;;;;;;5093630;28;20259;-63
2021/12/20 04:54:43;;;;;;;10.10;4.70;;;7.90;99.90;;;;;;5084510;28;20191;-63
2021/12/20 04:57:09;;;;;;;10.17;5.70;;;8.00;99.90;;;;;;5093319;28;20192;-63
2021/12/20 04:59:34;;;;;;;11.63;4.97;;;8.00;99.90;;;;;;5075134;28;20211;-63
2021/12/20 05:02:00;;;;;;;9.63;5.40;;;7.90;99.90;;;;;;5058327;28;20212;-63
2021/12/20 05:04:26;;;;;;;10.10;4.60;;;7.70;99.90;;;;;;5071113;28;20559;-63
2021/12/20 05:06:52;;;;;;;9.07;4.93;;;7.60;99.90;;;;;;5055948;28;20681;-63
2021/12/20 05:09:18;;;;;;;10.23;5.13;;;7.60;99.90;;;;;;5062547;28;20253;-63
2021/12/20 05:11:50;;;;;;;10.67;4.67;;;7.60;99.90;;;;;;5058512;28;20197;-63
2021/12/20 05:14:17;;;;;;;9.43;4.73;;;7.80;99.90;;;;;;5055783;28;20638;-63
2021/12/20 05:16:43;;;;;;;11.97;4.87;;;7.80;99.90;;;;;;5066137;28;20223;-63
2021/12/20 05:19:09;;;;;;;7.83;5.07;;;7.50;99.90;;;;;;5074823;28;20235;-63
2021/12/20 05:21:34;;;;;;;9.13;4.13;;;7.60;99.90;;;;;;5092578;28;20272;-63
2021/12/20 05:24:00;;;;;;;8.40;4.73;;;7.50;99.90;;;;;;5074058;28;20557;-63
2021/12/20 05:26:26;;;;;;;5.20;4.13;;;7.40;99.90;;;;;;5074813;28;20220;-63
2021/12/20 05:28:54;;;;;;;9.47;3.90;;;7.50;99.90;;;;;;5074693;28;20195;-63
2021/12/20 05:31:20;;;;;;;9.77;5.43;;;7.40;99.90;;;;;;5075335;28;20241;-63
2021/12/20 05:33:46;;;;;;;8.53;3.90;;;7.30;99.90;;;;;;5062170;28;20615;-63
2021/12/20 05:36:12;;;;;;;7.30;3.90;;;7.30;99.90;;;;;;5074062;28;20193;-63
2021/12/20 05:38:37;;;;;;;9.07;4.20;;;7.40;99.90;;;;;;5055596;28;20189;-64
2021/12/20 05:41:03;;;;;;;12.93;4.97;;;7.50;99.90;;;;;;5092442;28;20185;-63
2021/12/20 05:43:29;;;;;;;8.27;3.93;;;7.40;99.90;;;;;;5074540;28;20230;-63
2021/12/20 05:45:55;;;;;;;8.70;4.00;;;7.50;99.90;;;;;;5058353;28;20219;-63
2021/12/20 05:48:21;;;;;;;5.57;4.20;;;7.60;99.90;;;;;;5073608;28;20617;-63
2021/12/20 05:50:46;;;;;;;10.33;4.07;;;7.50;99.90;;;;;;5038452;28;20185;-63
2021/12/20 05:53:12;;;;;;;5.57;4.23;;;7.60;99.90;;;;;;5062388;28;20238;-63
2021/12/20 05:55:38;;;;;;;7.67;3.80;;;7.60;99.90;;;;;;5063276;28;20243;-63
2021/12/20 05:58:03;;;;;;;8.43;4.50;;;7.70;99.90;;;;;;5066201;28;20549;-63
2021/12/20 06:00:29;;;;;;;7.83;3.63;;;7.70;99.90;;;;;;5055204;28;20189;-63
2021/12/20 06:02:55;;;;;;;7.63;4.13;;;7.70;99.90;;;;;;5055771;28;20646;-63
2021/12/20 06:05:21;;;;;;;8.30;4.83;;;7.80;99.90;;;;;;5044449;28;20184;-63
2021/12/20 06:07:47;;;;;;;12.93;3.80;;;7.80;99.90;;;;;;5092220;28;20279;-63
2021/12/20 06:10:18;;;;;;;9.77;4.47;;;7.80;99.90;;;;;;5091879;28;20216;-63
2021/12/20 06:12:45;;;;;;;6.20;3.73;;;7.80;99.90;;;;;;5080747;28;20181;-63
2021/12/20 06:15:11;;;;;;;7.43;3.97;;;7.60;99.90;;;;;;5092501;28;20189;-63
2021/12/20 06:17:37;;;;;;;12.33;3.37;;;7.70;99.90;;;;;;5074293;28;20208;-63
2021/12/20 06:20:06;;;;;;;8.30;4.70;;;7.80;99.90;;;;;;5074020;28;20228;-63
2021/12/20 06:22:31;;;;;;;15.23;4.00;;;7.70;99.90;;;;;;5071297;28;20188;-63
2021/12/20 06:24:57;;;;;;;8.60;3.77;;;7.80;99.90;;;;;;5059258;28;20263;-63
2021/12/20 06:27:23;;;;;;;10.87;4.13;;;7.80;99.90;;;;;;5074337;28;20644;-63
2021/12/20 06:29:48;;;;;;;6.53;3.53;;;8.00;99.90;;;;;;5091844;28;20203;-63
2021/12/20 06:32:14;;;;;;;10.60;4.27;;;7.80;99.90;;;;;;5067706;28;20603;-63
2021/12/20 06:34:40;;;;;;;8.97;3.40;;;7.80;99.90;;;;;;5059040;28;20210;-63
2021/12/20 06:37:06;;;;;;;5.10;3.33;;;7.90;99.90;;;;;;5061260;28;20196;-63
2021/12/20 06:39:32;;;;;;;9.53;3.27;;;7.90;99.90;;;;;;5095996;28;20185;-64
2021/12/20 06:41:58;;;;;;;18.07;5.23;;;8.00;99.90;;;;;;5051085;28;20242;-63
2021/12/20 06:44:24;;;;;;;10.37;3.47;;;7.90;99.90;;;;;;5095327;28;20189;-63
2021/12/20 06:46:50;;;;;;;10.23;3.57;;;7.80;99.90;;;;;;5053749;28;20213;-63
2021/12/20 06:49:16;;;;;;;10.23;3.93;;;7.70;99.90;;;;;;5045965;28;20260;-63
2021/12/20 06:51:43;;;;;;;8.10;3.27;;;7.70;99.90;;;;;;5077670;28;20553;-63
2021/12/20 06:54:11;;;;;;;7.77;4.03;;;7.80;99.90;;;;;;5076417;28;20633;-64
2021/12/20 06:56:37;;;;;;;11.37;3.40;;;8.00;99.90;;;;;;5095086;28;20189;-63
2021/12/20 06:59:03;;;;;;;9.93;3.13;;;7.80;99.90;;;;;;5077283;28;20762;-64
2021/12/20 07:01:29;;;;;;;4.23;2.40;;;7.60;99.90;;;;;;5077456;28;20200;-63
2021/12/20 07:03:55;;;;;;;11.17;2.87;;;7.40;99.90;;;;;;5095541;28;20188;-64
2021/12/20 07:06:21;;;;;;;8.73;3.33;;;7.40;99.90;;;;;;5095061;28;20219;-63
2021/12/20 07:08:46;;;;;;;13.60;3.53;;;7.40;99.90;;;;;;5095110;28;20201;-64
2021/12/20 07:11:12;;;;;;;11.40;3.03;;;7.50;99.90;;;;;;5077546;28;20702;-64
2021/12/20 07:13:38;;;;;;;6.97;3.00;;;7.60;99.90;;;;;;5076692;28;20279;-64
2021/12/20 07:16:05;;;;;;;13.07;2.77;;;7.60;99.90;;;;;;5094661;28;20275;-63
2021/12/20 07:18:30;;;;;;;10.70;3.37;;;7.70;99.90;;;;;;5077326;28;20197;-63
2021/12/20 07:20:56;;;;;;;11.77;3.20;;;7.70;99.90;;;;;;5077179;28;20195;-63
2021/12/20 07:23:22;;;;;;;9.70;3.47;;;7.50;99.90;;;;;;5077129;28;20598;-63
2021/12/20 07:25:49;;;;;;;9.17;3.20;;;7.50;99.90;;;;;;5076565;28;20700;-64
2021/12/20 07:28:15;;;;;;;8.83;2.80;;;7.40;99.90;;;;;;5060676;28;20270;-64
2021/12/20 07:30:41;;;;;;;16.73;5.63;;;7.50;99.90;;;;;;5094609;28;20188;-64
2021/12/20 07:33:08;;;;;;;8.10;4.07;;;7.40;99.90;;;;;;5074045;28;20700;-64
2021/12/20 07:35:34;;;;;;;13.73;4.80;;;7.40;99.90;;;;;;5070182;28;20219;-64
2021/12/20 07:38:02;;;;;;;25.50;5.43;;;7.50;99.90;;;;;;5060307;28;20217;-64
2021/12/20 07:40:28;;;;;;;5.60;3.80;;;7.60;99.90;;;;;;5070202;28;20549;-63
2021/12/20 07:42:54;;;;;;;5.73;3.20;;;7.40;99.90;;;;;;5075300;28;20181;-64
2021/12/20 07:45:20;;;;;;;7.77;2.93;;;7.40;99.90;;;;;;5083414;28;20710;-63
2021/12/20 07:47:50;;;;;;;11.40;3.60;;;7.60;99.90;;;;;;5089666;28;20190;-64
2021/12/20 07:50:18;;;;;;;7.03;4.57;;;7.70;99.90;;;;;;5081237;28;20230;-64
2021/12/20 07:52:44;;;;;;;6.37;3.00;;;7.70;99.90;;;;;;5091950;28;20181;-64
2021/12/20 07:55:10;;;;;;;8.07;2.73;;;7.40;99.90;;;;;;5079071;28;20211;-64
2021/12/20 07:57:37;;;;;;;6.57;2.93;;;7.40;99.90;;;;;;5090524;28;20185;-64
2021/12/20 08:00:04;;;;;;;9.50;3.77;;;7.40;99.90;;;;;;5075372;28;20193;-64
2021/12/20 08:02:30;;;;;;;12.77;4.23;;;7.50;99.90;;;;;;5085477;28;20559;-65
2021/12/20 08:04:56;;;;;;;17.17;3.93;;;7.40;99.90;;;;;;5094400;28;20188;-64
2021/12/20 08:07:22;;;;;;;10.90;2.73;;;7.50;99.90;;;;;;5075963;28;20286;-64
2021/12/20 08:09:49;;;;;;;8.77;2.80;;;7.30;99.90;;;;;;5094025;28;20197;-65
2021/12/20 08:12:15;;;;;;;9.53;3.67;;;7.20;99.90;;;;;;5075601;28;20188;-64
2021/12/20 08:14:40;;;;;;;13.63;2.77;;;7.20;99.90;;;;;;5059461;28;20219;-64
2021/12/20 08:17:06;;;;;;;8.60;2.83;;;7.20;99.90;;;;;;5048470;28;20595;-64
2021/12/20 08:19:32;;;;;;;13.87;3.10;;;7.20;99.90;;;;;;5075519;28;20193;-64
2021/12/20 08:21:58;;;;;;;10.13;2.87;;;7.40;99.90;;;;;;5068330;28;20192;-64
2021/12/20 08:24:23;;;;;;;4.50;1.87;;;7.40;99.90;;;;;;5073029;28;20181;-64
2021/12/20 08:26:49;;;;;;;9.33;2.50;;;7.40;99.90;;;;;;5056647;28;20201;-65
2021/12/20 08:29:15;;;;;;;14.20;3.70;;;7.50;99.90;;;;;;5070057;28;20181;-64
2021/12/20 08:31:40;;;;;;;11.90;2.77;;;7.50;99.90;;;;;;5065779;28;20200;-65
2021/12/20 08:34:06;;;;;;;7.17;2.33;;;7.40;99.90;;;;;;5038245;28;20189;-64
2021/12/20 08:36:32;;;;;;;5.73;2.30;;;7.30;99.90;;;;;;5067025;28;20657;-64
2021/12/20 08:38:58;;;;;;;20.17;4.63;;;7.40;99.90;;;;;;5083527;28;20196;-64
2021/12/20 08:41:24;;;;;;;11.97;2.80;;;7.50;99.90;;;;;;5053196;28;20184;-65
2021/12/20 08:43:50;;;;;;;7.60;2.93;;;7.60;99.90;;;;;;5083092;28;20184;-63
2021/12/20 08:46:16;;;;;;;8.67;1.93;;;7.60;99.90;;;;;;5074823;28;20212;-64
2021/12/20 08:48:45;;;;;;;2.27;2.07;;;7.70;99.90;;;;;;5080679;28;20188;-64
2021/12/20 08:51:11;;;;;;;7.33;2.10;;;7.70;99.90;;;;;;5104336;28;20222;-63
2021/12/20 08:53:37;;;;;;;15.27;3.57;;;7.70;99.90;;;;;;5059958;28;20257;-65
2021/12/20 08:56:04;;;;;;;16.43;2.80;;;7.60;99.90;;;;;;5072025;28;20221;-64
2021/12/20 08:58:30;;;;;;;7.60;2.70;;;7.60;99.90;;;;;;5068782;28;20193;-64
2021/12/20 09:00:56;;;;;;;8.87;2.73;;;7.70;99.90;;;;;;5094366;28;20193;-65
2021/12/20 09:03:23;;;;;;;10.23;2.40;;;7.80;99.90;;;;;;5044838;28;20276;-65
2021/12/20 09:05:49;;;;;;;10.87;3.27;;;7.90;99.90;;;;;;5096923;28;20291;-64
2021/12/20 09:08:18;;;;;;;11.93;2.50;;;7.90;99.90;;;;;;5075658;28;20201;-64
2021/12/20 09:10:44;;;;;;;6.33;2.60;;;8.00;99.90;;;;;;5052929;28;20284;-64
2021/12/20 09:13:09;;;;;;;16.60;3.43;;;8.00;99.90;;;;;;5093477;28;20227;-64
2021/12/20 09:15:36;;;;;;;8.50;2.83;;;8.10;99.90;;;;;;5070066;28;20246;-64
2021/12/20 09:18:03;;;;;;;12.77;2.97;;;8.20;99.90;;;;;;5048016;28;20235;-64
2021/12/20 09:20:30;;;;;;;11.03;2.40;;;8.20;99.90;;;;;;5088507;28;20185;-64
2021/12/20 09:23:03;;;;;;;10.03;2.60;;;8.10;99.90;;;;;;5068565;28;20181;-66
2021/12/20 09:25:30;;;;;;;10.67;2.43;;;8.20;99.90;;;;;;5067300;28;20193;-67
2021/12/20 09:27:57;;;;;;;11.30;3.33;;;8.40;99.90;;;;;;5069070;28;20276;-67
2021/12/20 09:30:25;;;;;;;13.97;2.90;;;8.30;99.90;;;;;;5064118;28;20185;-67
2021/12/20 09:32:51;;;;;;;7.93;2.93;;;8.20;99.90;;;;;;5063660;28;20228;-68
2021/12/20 09:35:17;;;;;;;6.40;2.50;;;8.30;99.90;;;;;;5089500;28;20294;-67
2021/12/20 09:37:45;;;;;;;8.83;2.80;;;8.20;99.90;;;;;;5046441;28;20628;-66
2021/12/20 09:40:15;;;;;;;12.03;2.90;;;8.20;99.90;;;;;;5066979;28;20594;-66
2021/12/20 09:42:53;;;;;;;18.40;3.60;;;8.30;99.90;;;;;;5080667;28;20188;-67
2021/12/20 09:45:20;;;;;;;7.23;2.47;;;8.30;99.90;;;;;;5109608;28;20215;-66
2021/12/20 09:47:46;;;;;;;11.20;2.80;;;8.30;99.90;;;;;;5090049;28;20223;-67
2021/12/20 09:50:12;;;;;;;10.93;3.13;;;8.30;99.90;;;;;;5074398;28;20779;-67
2021/12/20 09:52:41;;;;;;;14.23;3.53;;;8.30;99.90;;;;;;5091060;28;20189;-68
2021/12/20 09:55:08;;;;;;;12.67;3.10;;;8.30;99.90;;;;;;5079509;28;20298;-67
2021/12/20 09:57:35;;;;;;;9.00;3.37;;;8.30;99.90;;;;;;5075567;28;20224;-66
2021/12/20 10:00:04;;;;;;;4.57;2.53;;;8.40;99.90;;;;;;5074596;28;20189;-66
2021/12/20 10:02:30;;;;;;;9.00;3.23;;;8.40;99.90;;;;;;5079699;28;20549;-65
2021/12/20 10:04:56;;;;;;;8.87;3.13;;;8.20;99.90;;;;;;5067880;28;20188;-66
2021/12/20 10:07:24;;;;;;;12.77;3.53;;;8.20;99.90;;;;;;5087920;28;20298;-68
2021/12/20 10:09:51;;;;;;;15.40;2.60;;;8.20;99.90;;;;;;5079904;28;20209;-67
2021/12/20 10:12:22;;;;;;;13.10;3.80;;;8.20;99.90;;;;;;5085626;28;20189;-67
2021/12/20 10:15:05;;;;;;;8.73;3.10;;;8.30;99.90;;;;;;5084299;28;20576;-65
2021/12/20 10:17:58;;;;;;;9.37;2.50;;;8.40;99.90;;;;;;5064834;28;20546;-68
2021/12/20 10:20:27;;;;;;;7.13;3.70;;;8.40;99.90;;;;;;5088973;28;20169;-67
2021/12/20 10:23:06;;;;;;;11.33;3.13;;;8.60;99.90;;;;;;5092763;28;20184;-68
2021/12/20 10:25:34;;;;;;;10.77;2.40;;;8.80;99.90;;;;;;5085581;28;20185;-68
2021/12/20 10:28:22;;;;;;;10.33;2.80;;;8.40;99.90;;;;;;5072054;28;20200;-68
2021/12/20 10:30:50;;;;;;;14.30;2.93;;;8.30;99.90;;;;;;5075003;28;20665;-66
2021/12/20 10:33:19;;;;;;;16.47;3.80;;;8.20;99.90;;;;;;5085040;28;20188;-65
2021/12/20 10:35:53;;;;;;;11.00;3.37;;;8.20;99.90;;;;;;5082985;28;20219;-66
2021/12/20 10:38:33;;;;;;;12.17;3.40;;;8.40;99.90;;;;;;5069204;28;20266;-66
2021/12/20 10:41:12;;;;;;;8.90;2.87;;;8.40;99.90;;;;;;5064662;28;20558;-67
2021/12/20 10:43:49;;;;;;;12.60;3.07;;;8.50;99.90;;;;;;5086872;28;20536;-68
2021/12/20 10:46:15;;;;;;;6.90;2.63;;;8.60;99.90;;;;;;5095895;28;20216;-71
2021/12/20 10:48:43;;;;;;;5.23;2.10;;;8.60;99.90;;;;;;5086757;28;20322;-67
2021/12/20 10:51:24;;;;;;;9.53;3.47;;;8.60;99.90;;;;;;5093809;28;20185;-68
2021/12/20 10:53:58;;;;;;;8.93;2.93;;;8.60;99.90;;;;;;5082043;28;20189;-66
2021/12/20 10:56:25;;;;;;;15.50;2.67;;;8.30;99.90;;;;;;5058542;28;20187;-65
2021/12/20 10:58:52;;;;;;;11.50;4.43;;;8.20;99.90;;;;;;5092139;28;20255;-68
2021/12/20 11:04:04;;;;;;;12.33;2.73;;;8.20;99.90;;;;;;5083028;28;20188;-67
2021/12/20 11:06:44;;;;;;;14.33;2.90;;;8.10;99.90;;;;;;5069301;28;20224;-66
2021/12/20 11:09:19;;;;;;;4.93;2.73;;;8.30;99.90;;;;;;5043861;28;20212;-66
2021/12/20 11:11:58;;;;;;;15.83;3.40;;;8.40;99.90;;;;;;5088752;28;20581;-66
2021/12/20 11:14:37;;;;;;;10.87;2.83;;;8.40;99.90;;;;;;5076703;28;20211;-67
2021/12/20 11:17:06;;;;;;;12.67;2.57;;;8.40;99.90;;;;;;5077130;28;20241;-66
2021/12/20 11:19:34;;;;;;;10.07;2.80;;;8.40;99.90;;;;;;5095031;28;20273;-66
2021/12/20 11:22:05;;;;;;;4.47;2.33;;;8.40;99.90;;;;;;5081801;28;20182;-68
2021/12/20 11:24:37;;;;;;;13.60;3.00;;;8.30;99.90;;;;;;5085353;28;20514;-67
2021/12/20 11:27:06;;;;;;;11.00;3.40;;;8.30;99.90;;;;;;5060486;28;20212;-67
2021/12/20 11:29:32;;;;;;;10.23;2.17;;;8.10;99.90;;;;;;5072251;28;20189;-67
2021/12/20 11:31:58;;;;;;;9.50;3.13;;;8.20;99.90;;;;;;5078162;28;20554;-66
2021/12/20 11:34:25;;;;;;;7.17;3.17;;;8.40;99.90;;;;;;5074439;28;20264;-67
2021/12/20 11:36:52;;;;;;;4.77;2.33;;;8.40;99.90;;;;;;5094799;28;20200;-67
2021/12/20 11:39:18;;;;;;;10.50;2.40;;;8.30;99.90;;;;;;5074620;28;20185;-66
2021/12/20 11:41:44;;;;;;;9.97;2.07;;;8.20;99.90;;;;;;5074520;28;20192;-66
2021/12/20 11:44:15;;;;;;;9.23;2.83;;;8.20;99.90;;;;;;5086491;28;20197;-66
2021/12/20 11:47:08;;;;;;;7.27;2.60;;;8.20;99.90;;;;;;5067472;28;20299;-66
2021/12/20 11:49:35;;;;;;;6.67;3.07;;;8.30;99.90;;;;;;5087927;28;20181;-66
2021/12/20 11:52:19;;;;;;;12.73;3.73;;;8.50;99.90;;;;;;5094200;28;20264;-66
2021/12/20 11:54:46;;;;;;;9.73;2.27;;;8.60;99.90;;;;;;5076712;28;20583;-66
2021/12/20 11:57:35;;;;;;;11.07;1.80;;;8.70;99.90;;;;;;5094269;28;20576;-67
2021/12/20 12:00:07;;;;;;;6.37;1.30;;;8.50;99.90;;;;;;5073529;28;20275;-66
2021/12/20 12:02:39;;;;;;;3.90;1.40;;;8.40;99.90;;;;;;5061257;28;20177;-66
2021/12/20 12:05:06;;;;;;;13.87;4.23;;;8.50;99.90;;;;;;5073134;28;20640;-66
2021/12/20 12:07:35;;;;;;;5.23;2.87;;;8.60;99.90;;;;;;5091659;28;20224;-66
2021/12/20 12:10:25;;;;;;;8.47;3.20;;;8.80;99.90;;;;;;5059587;28;20211;-66
2021/12/20 12:13:00;;;;;;;5.07;2.20;;;8.60;99.90;;;;;;5093392;28;20673;-66
2021/12/20 12:15:42;;;;;;;4.13;1.93;;;8.50;99.90;;;;;;5094302;28;20579;-66
2021/12/20 12:18:10;;;;;;;3.03;1.67;;;8.40;99.90;;;;;;5075450;28;20188;-66
2021/12/20 12:20:53;;;;;;;5.13;1.80;;;8.50;99.90;;;;;;5076456;28;20192;-65
2021/12/20 12:23:24;;;;;;;6.50;3.30;;;8.70;99.90;;;;;;5059094;28;20554;-68
2021/12/20 12:25:51;;;;;;;3.07;2.10;;;8.60;99.90;;;;;;5075892;28;20208;-66
2021/12/20 12:28:23;;;;;;;2.17;1.43;;;8.60;99.90;;;;;;5092448;28;20268;-66
2021/12/20 12:31:04;;;;;;;8.17;1.73;;;8.40;99.90;;;;;;5081582;28;20181;-67
2021/12/20 12:33:36;;;;;;;5.00;1.60;;;8.60;99.90;;;;;;5071324;28;20193;-67
2021/12/20 12:36:08;;;;;;;2.30;2.00;;;8.30;99.90;;;;;;5069520;28;20192;-67
2021/12/20 12:38:52;;;;;;;6.90;2.17;;;8.40;99.90;;;;;;5074770;28;20217;-66
2021/12/20 12:41:47;;;;;;;6.13;2.20;;;8.30;99.90;;;;;;5056377;28;20185;-67
2021/12/20 12:44:33;;;;;;;6.83;2.10;;;8.40;99.90;;;;;;5064797;28;20275;-66
2021/12/20 12:47:10;;;;;;;3.63;1.70;;;8.40;99.90;;;;;;5081009;28;20217;-66
2021/12/20 12:49:59;;;;;;;5.90;2.20;;;8.40;99.90;;;;;;5073903;28;20602;-66
2021/12/20 12:52:25;;;;;;;6.20;2.20;;;8.50;99.90;;;;;;5093900;28;20220;-67
2021/12/20 12:55:10;;;;;;;5.57;1.60;;;8.40;99.90;;;;;;5057828;28;20220;-67
2021/12/20 12:57:38;;;;;;;5.07;1.63;;;8.40;99.90;;;;;;5060553;28;20180;-67
2021/12/20 13:00:06;;;;;;;3.60;2.10;;;8.40;99.90;;;;;;5075344;28;20181;-68
2021/12/20 13:02:35;;;;;;;4.00;2.73;;;8.40;99.90;;;;;;5093422;28;20188;-67
2021/12/20 13:05:07;;;;;;;8.53;3.30;;;8.50;99.90;;;;;;5092635;28;20227;-67
2021/12/20 13:07:39;;;;;;;3.63;2.07;;;8.50;99.90;;;;;;5074655;28;20703;-68
2021/12/20 13:10:21;;;;;;;12.93;2.27;;;8.40;99.90;;;;;;5092847;28;20196;-67
2021/12/20 13:12:52;;;;;;;5.53;2.70;;;8.40;99.90;;;;;;5071420;28;20691;-68